TES weather

Tesalia Airport
Tesalia, Huila Department, Colombia

Public forecast

Using degrees Celsius for public forecast. Weather courtesy of forecast.io.

Closest aviation weather report (METAR) to Tesalia Airport

Closest report is Benito Salas Airport, 31.1 nm (57.6 km) NNE. Retrieved 2020/02/18 21:00 UTC (20 minutes ago):

SKNV 182100Z 19008KT 140V250 9999 FEW050 BKN110 37/14 A2971

Closest aviation forecast (TAF) to Tesalia Airport

Closest forecast is Alfonso Bonilla Aragon International Airport, 85.9 nm (159.1 km) NW. Retrieved 2020/02/18 18:35 UTC (3 hours ago):

TAF SKCL 181630Z 1818/1918 29008KT 9999 SCT020 BKN250 BECMG 1823/1901 04004KT FEW017 SCT250 TEMPO 1910/1913 8000 VCFG TX35/1819Z TN19/1910Z